KHEZ/HEZ METAR and TAF weather

Enter ICAO airport designator
Station Type Date Time Source
KHEZ METAR 2021/07/28 05:03 UTC NOAA

KHEZ 280503Z AUTO 00000KT 10SM CLR 24/23 A3003 RMK AO2 TSE0457


Station Type Date Time Source
KHEZ Decoded METAR 2021/07/28 05:03 UTC NOAA

Natchez, Hardy-Anders Field Natchez-Adams County Airport, MS, United States (KHEZ) 31-37N 091-18W
Jul 28, 2021 - 01:03 AM EDT / 2021.07.28 0503 UTC
Wind: Calm:0
Visibility: 10 mile(s):0
Sky conditions: clear
Temperature: 75 F (24 C)
Dew Point: 73 F (23 C)
Relative Humidity: 94%
Pressure (altimeter): 30.03 in. Hg (1016 hPa)
ob: KHEZ 280503Z AUTO 00000KT 10SM CLR 24/23 A3003 RMK AO2 TSE0457
cycle: 5

Station Type Date Time Source
KHEZ TAF UTC NOAA

Error!

Example: see airport list